Time;durP1;ratioP1;P1;durP2;ratioP2;P2;SDS_P1;SDS_P2;PMS_P1;PMS_P2;Temp;Humidity;BMP_temperature;BMP_pressure;BME280_temperature;BME280_humidity;BME280_pressure;Samples;Min_cycle;Max_cycle;Signal;HPM_P1;HPM_P2
2022/07/30 00:02:16;;;;;;;7.93;3.03;;;17.90;99.90;;;;;;5002530;28;20086;-81
2022/07/30 00:04:42;;;;;;;6.25;2.97;;;17.80;99.90;;;;;;5004528;28;20050;-81
2022/07/30 00:07:08;;;;;;;6.95;2.55;;;17.80;99.90;;;;;;4984418;28;20056;-81
2022/07/30 00:09:34;;;;;;;7.28;3.42;;;17.70;99.90;;;;;;4968125;28;20056;-80
2022/07/30 00:11:59;;;;;;;8.93;3.38;;;17.60;99.90;;;;;;5000164;28;20042;-80
2022/07/30 00:14:25;;;;;;;7.47;2.92;;;17.60;99.90;;;;;;4996566;28;20054;-80
2022/07/30 00:16:52;;;;;;;6.15;3.05;;;17.60;99.90;;;;;;4997251;28;20081;-80
2022/07/30 00:19:18;;;;;;;3.95;2.47;;;17.50;99.90;;;;;;4982355;28;20052;-80
2022/07/30 00:21:44;;;;;;;5.30;2.70;;;17.50;99.90;;;;;;4995018;28;20492;-81
2022/07/30 00:24:10;;;;;;;5.80;3.10;;;17.50;99.90;;;;;;4965936;28;20042;-81
2022/07/30 00:26:36;;;;;;;5.32;3.20;;;17.40;99.90;;;;;;5002403;28;20345;-81
2022/07/30 00:29:02;;;;;;;5.38;3.15;;;17.40;99.90;;;;;;4996646;28;20589;-81
2022/07/30 00:31:28;;;;;;;6.40;3.35;;;17.40;99.90;;;;;;4982394;28;20407;-81
2022/07/30 00:33:54;;;;;;;5.72;3.25;;;17.40;99.90;;;;;;4970732;28;20045;-81
2022/07/30 00:36:19;;;;;;;7.47;3.28;;;17.40;99.90;;;;;;4964444;28;20066;-81
2022/07/30 00:38:45;;;;;;;5.53;3.10;;;17.30;99.90;;;;;;4980451;28;20072;-83
2022/07/30 00:41:11;;;;;;;5.93;2.75;;;17.30;99.90;;;;;;4982299;28;20661;-81
2022/07/30 00:43:36;;;;;;;4.93;3.03;;;17.30;99.90;;;;;;4979887;28;20038;-81
2022/07/30 00:46:02;;;;;;;6.93;3.45;;;17.30;99.90;;;;;;4969273;28;20049;-81
2022/07/30 00:48:28;;;;;;;5.25;3.33;;;17.20;99.90;;;;;;4997920;28;20081;-81
2022/07/30 00:50:54;;;;;;;5.40;3.03;;;17.20;99.90;;;;;;4984976;28;20132;-81
2022/07/30 00:53:19;;;;;;;5.32;3.42;;;17.10;99.90;;;;;;4965179;28;20045;-80
2022/07/30 00:55:45;;;;;;;5.75;3.33;;;17.10;99.90;;;;;;4977599;28;20049;-80
2022/07/30 00:58:11;;;;;;;6.75;3.03;;;17.10;99.90;;;;;;4987773;28;20052;-80
2022/07/30 01:00:37;;;;;;;7.20;3.97;;;17.10;99.90;;;;;;4963618;28;20053;-81
2022/07/30 01:03:03;;;;;;;6.43;3.25;;;17.10;99.90;;;;;;4979146;28;20042;-81
2022/07/30 01:05:29;;;;;;;7.57;4.10;;;17.00;99.90;;;;;;4981595;28;20045;-80
2022/07/30 01:07:55;;;;;;;7.53;4.57;;;17.00;99.90;;;;;;4980826;28;20053;-82
2022/07/30 01:10:21;;;;;;;7.32;4.35;;;17.00;99.90;;;;;;4980793;28;20060;-82
2022/07/30 01:12:46;;;;;;;8.93;4.55;;;17.00;99.90;;;;;;4995917;28;20045;-82
2022/07/30 01:15:13;;;;;;;11.90;4.32;;;16.90;99.90;;;;;;4986852;28;20069;-80
2022/07/30 01:17:38;;;;;;;9.95;3.58;;;16.90;99.90;;;;;;4950236;28;20499;-80
2022/07/30 01:20:14;;;;;;;8.13;3.55;;;16.90;99.90;;;;;;5004514;28;20051;-80
2022/07/30 01:22:59;;;;;;;;;;;17.00;99.90;;;;;;5018875;28;20381;-81
2022/07/30 01:25:31;;;;;;;8.68;3.10;;;17.10;99.90;;;;;;4998907;28;20340;-81
2022/07/30 01:28:06;;;;;;;5.18;2.78;;;17.20;99.90;;;;;;4986059;28;20406;-80
2022/07/30 01:30:37;;;;;;;7.17;3.03;;;17.20;99.90;;;;;;4998598;28;20041;-81
2022/07/30 01:33:04;;;;;;;10.63;2.97;;;17.30;99.90;;;;;;4986026;28;21041;-81
2022/07/30 01:35:33;;;;;;;8.80;3.30;;;17.40;99.90;;;;;;4977332;28;20046;-81
2022/07/30 01:38:00;;;;;;;8.50;2.95;;;17.40;99.90;;;;;;4987703;28;20049;-81
2022/07/30 01:40:27;;;;;;;9.82;3.28;;;17.50;99.90;;;;;;4987027;28;20115;-81
2022/07/30 01:42:57;;;;;;;6.85;2.85;;;17.50;99.90;;;;;;4992368;28;20660;-81
2022/07/30 01:45:24;;;;;;;6.20;2.60;;;17.60;99.90;;;;;;4993152;28;20046;-82
2022/07/30 01:47:53;;;;;;;4.82;2.65;;;17.60;99.90;;;;;;4993627;28;20049;-82
2022/07/30 01:50:20;;;;;;;8.55;2.63;;;17.70;99.90;;;;;;5004427;28;20048;-82
2022/07/30 01:52:48;;;;;;;8.85;2.67;;;17.60;99.90;;;;;;4997327;28;20041;-82
2022/07/30 01:55:19;;;;;;;6.80;2.95;;;17.70;99.90;;;;;;5003268;28;20041;-82
2022/07/30 01:57:47;;;;;;;7.15;2.30;;;17.70;99.90;;;;;;4989510;28;20184;-82
2022/07/30 02:00:14;;;;;;;8.00;2.75;;;17.70;99.90;;;;;;4989768;28;20714;-82
2022/07/30 02:02:40;;;;;;;7.60;2.88;;;17.70;99.90;;;;;;4994252;28;20124;-81
2022/07/30 02:05:07;;;;;;;9.63;3.10;;;17.70;99.90;;;;;;4977479;28;20059;-81
2022/07/30 02:07:36;;;;;;;9.30;2.80;;;17.70;99.90;;;;;;5004612;28;20048;-82
2022/07/30 02:10:14;;;;;;;5.28;2.40;;;17.70;99.90;;;;;;4998944;28;20038;-82
2022/07/30 02:12:51;;;;;;;5.30;2.97;;;17.60;99.90;;;;;;4988497;28;20057;-83
2022/07/30 02:15:48;;;;;;;5.22;2.20;;;17.70;99.90;;;;;;4998560;28;20053;-81
2022/07/30 02:18:22;;;;;;;6.78;2.90;;;17.60;99.90;;;;;;4999450;28;20046;-82
2022/07/30 02:20:57;;;;;;;4.75;2.38;;;17.60;99.90;;;;;;4988437;28;20042;-81
2022/07/30 02:23:25;;;;;;;5.80;3.05;;;17.60;99.90;;;;;;5001980;28;20065;-81
2022/07/30 02:25:51;;;;;;;7.05;3.25;;;17.60;99.90;;;;;;4982447;28;20045;-81
2022/07/30 02:28:20;;;;;;;7.40;3.17;;;17.60;99.90;;;;;;4983498;28;20042;-81
2022/07/30 02:30:53;;;;;;;10.73;3.53;;;17.60;99.90;;;;;;4983495;28;20084;-81
2022/07/30 02:33:25;;;;;;;11.98;3.55;;;17.60;99.90;;;;;;4991562;28;20045;-81
2022/07/30 02:35:53;;;;;;;7.40;3.22;;;17.50;99.90;;;;;;5000756;28;20050;-81
2022/07/30 02:38:20;;;;;;;7.03;3.33;;;17.50;99.90;;;;;;5002741;28;20049;-81
2022/07/30 02:40:46;;;;;;;6.00;3.30;;;17.50;99.90;;;;;;4971844;28;20049;-81
2022/07/30 02:43:16;;;;;;;6.45;3.25;;;17.50;99.90;;;;;;4990301;28;20041;-81
2022/07/30 02:45:45;;;;;;;7.90;3.60;;;17.50;99.90;;;;;;4985212;28;20049;-80
2022/07/30 02:48:14;;;;;;;7.13;3.83;;;17.40;99.90;;;;;;4999706;28;20038;-81
2022/07/30 02:50:41;;;;;;;5.97;3.10;;;17.40;99.90;;;;;;4998150;28;20046;-82
2022/07/30 02:53:10;;;;;;;6.43;3.22;;;17.40;99.90;;;;;;4967741;28;20050;-82
2022/07/30 02:55:39;;;;;;;4.78;2.95;;;17.40;99.90;;;;;;4998845;28;20125;-81
2022/07/30 02:58:06;;;;;;;7.82;3.13;;;17.40;99.90;;;;;;4998838;28;20057;-82
2022/07/30 03:00:33;;;;;;;8.63;3.33;;;17.40;99.90;;;;;;4983643;28;20117;-82
2022/07/30 03:03:00;;;;;;;7.10;3.42;;;17.40;99.90;;;;;;4974761;28;20054;-82
2022/07/30 03:05:26;;;;;;;6.28;2.75;;;17.40;99.90;;;;;;5007012;28;20136;-81
2022/07/30 03:07:55;;;;;;;6.95;2.63;;;17.40;99.90;;;;;;4973093;28;20061;-82
2022/07/30 03:10:21;;;;;;;7.32;2.67;;;17.40;99.90;;;;;;4999595;28;20050;-83
2022/07/30 03:12:49;;;;;;;6.40;3.75;;;17.40;99.90;;;;;;4965529;28;20044;-82
2022/07/30 03:15:15;;;;;;;8.98;2.92;;;17.40;99.90;;;;;;4997630;28;20111;-82
2022/07/30 03:17:51;;;;;;;5.30;2.20;;;17.40;99.90;;;;;;5003224;28;20050;-82
2022/07/30 03:20:19;;;;;;;6.25;2.38;;;17.30;99.90;;;;;;4998631;28;20046;-81
2022/07/30 03:22:49;;;;;;;5.65;3.05;;;17.30;99.90;;;;;;4980768;28;20038;-81
2022/07/30 03:25:20;;;;;;;6.20;3.00;;;17.30;99.90;;;;;;4997915;28;20161;-82
2022/07/30 03:27:47;;;;;;;10.40;3.45;;;17.30;99.90;;;;;;4995787;28;20132;-82
2022/07/30 03:30:13;;;;;;;9.38;2.90;;;17.30;99.90;;;;;;4989674;28;20061;-81
2022/07/30 03:32:40;;;;;;;6.50;2.80;;;17.30;99.90;;;;;;4972536;28;20045;-82
2022/07/30 03:35:08;;;;;;;6.00;2.55;;;17.30;99.90;;;;;;4982611;28;20057;-82
2022/07/30 03:37:36;;;;;;;10.02;2.83;;;17.20;99.90;;;;;;4981439;28;20041;-82
2022/07/30 03:40:02;;;;;;;5.13;2.80;;;17.30;99.90;;;;;;4981940;28;20072;-81
2022/07/30 03:42:30;;;;;;;7.38;2.80;;;17.20;99.90;;;;;;4982629;28;20053;-81
2022/07/30 03:44:56;;;;;;;7.45;3.13;;;17.20;99.90;;;;;;5014620;28;20052;-82
2022/07/30 03:47:24;;;;;;;8.43;2.95;;;17.20;99.90;;;;;;4957245;28;20042;-82
2022/07/30 03:49:51;;;;;;;6.63;2.70;;;17.10;99.90;;;;;;4971305;28;20052;-81
2022/07/30 03:52:18;;;;;;;6.30;2.80;;;17.20;99.90;;;;;;4988503;28;21443;-81
2022/07/30 03:54:45;;;;;;;6.82;3.00;;;17.10;99.90;;;;;;4995306;28;20041;-82
2022/07/30 03:57:11;;;;;;;6.15;3.03;;;17.10;99.90;;;;;;4998173;28;20054;-81
2022/07/30 03:59:38;;;;;;;7.10;3.00;;;17.10;99.90;;;;;;4967133;28;20044;-82
2022/07/30 04:02:04;;;;;;;6.18;3.28;;;17.10;99.90;;;;;;4966565;28;20052;-82
2022/07/30 04:04:30;;;;;;;9.23;2.92;;;17.10;99.90;;;;;;5005437;28;20041;-82
2022/07/30 04:06:57;;;;;;;6.72;3.00;;;17.10;99.90;;;;;;4995816;28;20088;-81
2022/07/30 04:09:23;;;;;;;6.65;3.20;;;17.10;99.90;;;;;;4983647;28;20056;-81
2022/07/30 04:11:49;;;;;;;9.25;3.53;;;17.00;99.90;;;;;;5004282;28;20095;-82
2022/07/30 04:14:15;;;;;;;9.18;3.05;;;17.10;99.90;;;;;;4987986;28;20049;-81
2022/07/30 04:16:53;;;;;;;7.35;2.80;;;17.10;99.90;;;;;;4980601;28;20046;-82
2022/07/30 04:19:24;;;;;;;6.63;3.10;;;17.10;99.90;;;;;;4997560;28;20141;-82
2022/07/30 04:21:52;;;;;;;5.75;3.30;;;17.10;99.90;;;;;;4996328;28;20163;-83
2022/07/30 04:24:19;;;;;;;7.65;2.97;;;17.10;99.90;;;;;;4997041;28;20041;-83
2022/07/30 04:26:47;;;;;;;6.68;2.65;;;17.10;99.90;;;;;;4987000;28;20056;-82
2022/07/30 04:29:13;;;;;;;6.75;3.20;;;17.10;99.90;;;;;;4996337;28;20192;-82
2022/07/30 04:31:41;;;;;;;10.27;3.25;;;17.10;99.90;;;;;;4965770;28;20072;-82
2022/07/30 04:34:11;;;;;;;7.53;3.20;;;17.10;99.90;;;;;;4984510;28;20144;-82
2022/07/30 04:36:39;;;;;;;6.15;2.90;;;17.10;99.90;;;;;;4984752;28;20049;-82
2022/07/30 04:39:05;;;;;;;7.45;2.90;;;17.10;99.90;;;;;;4981604;28;20054;-81
2022/07/30 04:41:32;;;;;;;5.43;3.38;;;17.10;99.90;;;;;;4989409;28;20053;-82
2022/07/30 04:43:58;;;;;;;6.78;3.30;;;17.10;99.90;;;;;;4972239;28;20049;-81
2022/07/30 04:46:23;;;;;;;6.80;3.30;;;17.10;99.90;;;;;;4980589;28;20480;-81
2022/07/30 04:48:49;;;;;;;5.57;3.35;;;17.10;99.90;;;;;;4985679;28;20211;-82
2022/07/30 04:51:30;;;;;;;9.65;3.53;;;17.10;99.90;;;;;;4966325;28;20049;-81
2022/07/30 04:53:58;;;;;;;5.45;2.67;;;17.10;99.90;;;;;;4990444;28;20045;-82
2022/07/30 04:56:25;;;;;;;6.63;3.03;;;17.10;99.90;;;;;;4973954;28;20046;-82
2022/07/30 04:58:53;;;;;;;9.20;3.47;;;17.20;99.90;;;;;;4989279;28;20053;-82
2022/07/30 05:01:23;;;;;;;6.60;3.35;;;17.20;99.90;;;;;;5002629;28;20041;-81
2022/07/30 05:03:53;;;;;;;8.80;3.42;;;17.20;99.90;;;;;;4990342;28;20087;-80
2022/07/30 05:06:20;;;;;;;8.48;3.50;;;17.30;99.90;;;;;;4990573;28;20057;-81
2022/07/30 05:08:46;;;;;;;8.88;4.30;;;17.20;99.90;;;;;;4976244;28;20046;-82
2022/07/30 05:11:12;;;;;;;10.07;3.83;;;17.30;99.90;;;;;;4965364;28;20088;-82
2022/07/30 05:13:43;;;;;;;6.22;3.75;;;17.30;99.90;;;;;;4986555;28;20070;-81
2022/07/30 05:16:10;;;;;;;8.68;4.10;;;17.30;99.90;;;;;;4986139;28;20064;-81
2022/07/30 05:18:36;;;;;;;7.60;3.60;;;17.30;99.90;;;;;;5005144;28;20558;-81
2022/07/30 05:21:03;;;;;;;8.68;4.20;;;17.30;99.90;;;;;;5002943;28;20138;-82
2022/07/30 05:23:29;;;;;;;10.15;3.78;;;17.30;99.90;;;;;;4993124;28;20060;-81
2022/07/30 05:25:55;;;;;;;7.95;4.20;;;17.30;99.90;;;;;;4985707;28;20084;-82
2022/07/30 05:28:21;;;;;;;8.75;3.72;;;17.30;99.90;;;;;;5001965;28;20073;-81
2022/07/30 05:30:47;;;;;;;6.03;3.78;;;17.40;99.90;;;;;;4985974;28;20053;-82
2022/07/30 05:33:13;;;;;;;5.95;3.50;;;17.40;99.90;;;;;;4985454;28;20854;-82
2022/07/30 05:35:39;;;;;;;12.43;3.85;;;17.40;99.90;;;;;;4971148;28;20128;-81
2022/07/30 05:38:05;;;;;;;9.90;4.07;;;17.40;99.90;;;;;;5006365;28;20553;-82
2022/07/30 05:40:30;;;;;;;10.50;3.85;;;17.40;99.90;;;;;;4959751;28;20064;-81
2022/07/30 05:42:56;;;;;;;5.15;3.65;;;17.40;99.90;;;;;;4984981;28;20594;-81
2022/07/30 05:45:22;;;;;;;6.75;3.83;;;17.50;99.90;;;;;;4990628;28;20161;-81
2022/07/30 05:47:48;;;;;;;7.43;4.10;;;17.50;99.90;;;;;;4976329;28;20041;-82
2022/07/30 05:50:13;;;;;;;7.15;3.65;;;17.60;99.90;;;;;;4969049;28;20129;-82
2022/07/30 05:52:41;;;;;;;8.38;3.60;;;17.60;99.90;;;;;;4968530;28;20049;-81
2022/07/30 05:55:07;;;;;;;6.55;3.58;;;17.60;99.90;;;;;;4974385;28;20061;-83
2022/07/30 05:57:36;;;;;;;4.53;3.20;;;17.60;99.90;;;;;;4958574;28;20065;-82
2022/07/30 06:00:06;;;;;;;5.80;3.78;;;17.70;99.90;;;;;;4985642;28;20064;-82
2022/07/30 06:02:32;;;;;;;7.15;3.53;;;17.70;99.90;;;;;;4985142;28;20135;-83
2022/07/30 06:04:58;;;;;;;7.90;3.50;;;17.80;99.90;;;;;;4982468;28;20049;-84
2022/07/30 06:07:25;;;;;;;8.38;3.28;;;17.80;99.90;;;;;;4977710;28;20049;-81
2022/07/30 06:09:51;;;;;;;5.68;3.50;;;17.90;99.90;;;;;;4995436;28;20071;-82
2022/07/30 06:12:17;;;;;;;6.45;3.10;;;18.00;99.90;;;;;;5004609;28;20461;-83
2022/07/30 06:14:43;;;;;;;6.57;2.95;;;18.10;99.90;;;;;;4979608;28;20127;-84
2022/07/30 06:17:09;;;;;;;6.80;3.60;;;18.20;99.90;;;;;;4988512;28;20450;-83
2022/07/30 06:19:35;;;;;;;6.57;3.08;;;18.30;99.90;;;;;;5001633;28;20060;-84
2022/07/30 06:22:01;;;;;;;7.03;3.00;;;18.30;99.90;;;;;;4983457;28;20072;-84
2022/07/30 06:24:27;;;;;;;6.53;3.25;;;18.30;99.90;;;;;;4990241;28;20374;-83
2022/07/30 06:26:53;;;;;;;6.85;3.30;;;18.40;99.90;;;;;;4971643;28;20068;-82
2022/07/30 06:29:18;;;;;;;7.25;2.88;;;18.40;99.90;;;;;;4984497;28;20052;-84
2022/07/30 06:31:44;;;;;;;6.20;2.88;;;18.50;99.90;;;;;;4986675;28;20041;-83
2022/07/30 06:34:10;;;;;;;4.93;3.05;;;18.50;99.90;;;;;;4970501;28;20391;-83
2022/07/30 06:36:36;;;;;;;5.40;2.85;;;18.50;99.90;;;;;;4989475;28;20060;-84
2022/07/30 06:39:02;;;;;;;4.47;2.95;;;18.50;99.90;;;;;;4975826;28;20128;-83
2022/07/30 06:41:28;;;;;;;5.22;3.10;;;18.60;99.90;;;;;;4993527;28;20593;-83
2022/07/30 06:43:54;;;;;;;6.60;2.67;;;18.70;99.90;;;;;;4988627;28;20060;-84
2022/07/30 06:46:25;;;;;;;4.70;2.25;;;18.80;99.90;;;;;;4990448;28;20132;-81
2022/07/30 06:48:51;;;;;;;6.25;2.78;;;18.80;99.90;;;;;;4986042;28;20093;-81
2022/07/30 06:51:17;;;;;;;7.72;2.80;;;18.80;99.90;;;;;;4990131;28;20406;-82
2022/07/30 06:53:44;;;;;;;3.80;2.40;;;18.90;99.90;;;;;;4970421;28;20158;-80
2022/07/30 06:56:11;;;;;;;3.85;2.53;;;19.10;99.90;;;;;;4978118;28;20103;-81
2022/07/30 06:58:37;;;;;;;5.82;2.65;;;19.20;99.90;;;;;;4986917;28;20050;-81
2022/07/30 07:01:03;;;;;;;4.32;2.17;;;19.40;99.90;;;;;;4959154;28;20077;-83
2022/07/30 07:03:29;;;;;;;6.70;2.28;;;19.40;99.90;;;;;;4991382;28;20045;-83
2022/07/30 07:05:54;;;;;;;4.95;2.20;;;19.50;99.90;;;;;;4993975;28;20464;-80
2022/07/30 07:08:20;;;;;;;4.38;2.15;;;19.50;99.90;;;;;;4990260;28;20232;-83
2022/07/30 07:10:46;;;;;;;8.85;1.95;;;19.60;99.90;;;;;;4973085;28;20041;-81
2022/07/30 07:13:12;;;;;;;4.72;2.05;;;19.70;99.90;;;;;;4975079;28;20042;-83
2022/07/30 07:15:38;;;;;;;29.02;3.55;;;19.90;99.90;;;;;;4997917;28;20652;-81
2022/07/30 07:18:05;;;;;;;6.10;2.45;;;20.10;99.90;;;;;;4981915;28;20543;-82
2022/07/30 07:20:32;;;;;;;5.85;1.92;;;20.40;99.90;;;;;;4973498;28;20605;-80
2022/07/30 07:23:01;;;;;;;4.20;2.15;;;20.60;99.90;;;;;;5015799;28;20095;-82
2022/07/30 07:25:27;;;;;;;8.20;2.30;;;20.90;99.90;;;;;;4973011;28;20053;-82
2022/07/30 07:27:53;;;;;;;4.28;1.92;;;21.10;99.90;;;;;;4987229;28;20045;-82
2022/07/30 07:30:18;;;;;;;5.63;2.15;;;21.20;99.90;;;;;;4974219;28;20096;-82
2022/07/30 07:32:44;;;;;;;5.93;1.83;;;21.30;99.90;;;;;;4985073;28;20430;-82
2022/07/30 07:35:12;;;;;;;6.55;1.90;;;21.30;99.90;;;;;;4956948;28;20471;-82
2022/07/30 07:37:38;;;;;;;4.63;2.13;;;21.30;99.90;;;;;;4985175;28;20069;-81
2022/07/30 07:40:05;;;;;;;5.55;2.08;;;21.30;99.90;;;;;;4977272;28;20500;-83
2022/07/30 07:42:31;;;;;;;3.13;1.90;;;21.40;99.90;;;;;;4967091;28;20057;-80
2022/07/30 07:44:56;;;;;;;5.68;2.13;;;21.60;99.90;;;;;;4980817;28;20038;-81
2022/07/30 07:47:22;;;;;;;3.78;1.83;;;21.70;99.90;;;;;;4963845;28;20133;-81
2022/07/30 07:49:48;;;;;;;4.50;2.00;;;21.80;99.90;;;;;;4981399;28;20129;-82
2022/07/30 07:52:14;;;;;;;4.32;2.03;;;21.60;99.90;;;;;;4953907;28;20067;-83
2022/07/30 07:54:39;;;;;;;4.63;1.90;;;21.50;99.90;;;;;;4966387;28;20049;-82
2022/07/30 07:57:08;;;;;;;3.92;1.67;;;21.70;99.90;;;;;;4972125;28;20543;-84
2022/07/30 07:59:34;;;;;;;4.45;1.80;;;21.50;99.90;;;;;;4981646;28;20045;-83
2022/07/30 08:01:59;;;;;;;3.17;1.63;;;21.60;99.90;;;;;;4965993;28;20046;-84
2022/07/30 08:04:25;;;;;;;4.63;1.80;;;21.60;99.90;;;;;;4983152;28;20034;-83
2022/07/30 08:06:51;;;;;;;2.80;1.60;;;21.90;99.90;;;;;;4996475;28;20045;-83
2022/07/30 08:09:17;;;;;;;5.72;2.00;;;22.00;99.90;;;;;;4963340;28;20057;-84
2022/07/30 08:11:42;;;;;;;6.47;1.70;;;22.20;99.90;;;;;;4987334;28;20057;-85
2022/07/30 08:14:08;;;;;;;3.88;1.50;;;22.40;99.90;;;;;;4971768;28;20049;-85
2022/07/30 08:16:34;;;;;;;3.88;1.50;;;22.60;99.90;;;;;;4983458;28;20052;-84
2022/07/30 08:19:00;;;;;;;4.50;1.70;;;22.80;99.90;;;;;;4988750;28;20392;-84
2022/07/30 08:21:26;;;;;;;5.55;1.50;;;22.90;99.90;;;;;;4964734;28;20169;-83
2022/07/30 08:23:51;;;;;;;3.28;1.70;;;23.00;99.90;;;;;;4972488;28;20037;-84
2022/07/30 08:26:17;;;;;;;5.88;1.40;;;23.40;99.90;;;;;;4969384;28;20050;-83
2022/07/30 08:28:44;;;;;;;3.53;1.40;;;23.60;99.90;;;;;;4984995;28;20478;-83
2022/07/30 08:31:10;;;;;;;6.95;1.80;;;23.70;99.90;;;;;;4972385;28;20053;-83
2022/07/30 08:33:36;;;;;;;3.92;1.65;;;23.40;99.90;;;;;;4982569;28;20517;-84
2022/07/30 08:36:01;;;;;;;4.68;1.58;;;23.40;99.90;;;;;;4984012;28;20064;-84
2022/07/30 08:38:27;;;;;;;3.13;1.88;;;23.60;99.90;;;;;;4974450;28;20503;-83
2022/07/30 08:40:57;;;;;;;4.72;1.77;;;23.70;99.90;;;;;;4988533;28;20060;-82
2022/07/30 08:43:27;;;;;;;3.78;1.75;;;23.60;99.90;;;;;;4970195;28;20046;-83
2022/07/30 08:45:55;;;;;;;3.40;1.60;;;23.60;99.90;;;;;;4986726;28;20045;-84
2022/07/30 08:48:22;;;;;;;4.32;1.40;;;23.70;99.90;;;;;;4989112;28;20043;-83
2022/07/30 08:50:49;;;;;;;4.82;1.52;;;23.70;99.90;;;;;;4985415;28;20057;-83
2022/07/30 08:53:16;;;;;;;3.75;1.70;;;23.80;99.90;;;;;;4982760;28;20502;-83
2022/07/30 08:55:43;;;;;;;5.32;1.65;;;24.10;99.90;;;;;;4980187;28;20046;-82
2022/07/30 08:58:24;;;;;;;4.45;1.20;;;24.10;99.90;;;;;;5015584;28;20061;-85
2022/07/30 09:00:50;;;;;;;4.47;1.60;;;24.20;99.90;;;;;;4988271;28;20130;-80
2022/07/30 09:03:16;;;;;;;2.97;1.50;;;24.40;99.90;;;;;;4975500;28;20092;-82
2022/07/30 09:05:41;;;;;;;3.00;1.55;;;24.40;99.90;;;;;;4976223;28;20053;-85
2022/07/30 09:08:07;;;;;;;4.18;1.50;;;24.30;99.90;;;;;;4994221;28;20049;-84
2022/07/30 09:10:33;;;;;;;2.97;1.40;;;24.30;99.90;;;;;;4976956;28;20153;-82
2022/07/30 09:12:59;;;;;;;2.42;1.30;;;24.50;99.90;;;;;;4953979;28;20073;-82
2022/07/30 09:15:25;;;;;;;4.28;1.42;;;24.60;99.90;;;;;;4967957;28;20129;-82
2022/07/30 09:17:55;;;;;;;3.05;1.38;;;24.60;99.90;;;;;;4999988;28;20046;-81
2022/07/30 09:20:23;;;;;;;3.83;1.55;;;24.60;99.90;;;;;;4985894;28;20049;-82
2022/07/30 09:22:52;;;;;;;3.60;1.52;;;24.70;99.90;;;;;;4998579;28;20479;-82
2022/07/30 09:25:43;;;;;;;3.83;1.27;;;24.80;99.90;;;;;;4998909;28;20054;-81
2022/07/30 09:28:10;;;;;;;3.33;1.70;;;25.20;99.90;;;;;;4996226;28;20069;-82
2022/07/30 09:30:54;;;;;;;3.28;1.30;;;25.50;99.90;;;;;;4997144;28;20596;-81
2022/07/30 09:33:40;;;;;;;4.75;1.65;;;25.60;99.60;;;;;;4981062;28;20119;-82
2022/07/30 09:36:17;;;;;;;3.78;1.80;;;25.80;98.70;;;;;;4990675;28;20128;-81
2022/07/30 09:38:51;;;;;;;4.32;1.60;;;25.70;98.60;;;;;;4992994;28;20499;-81
2022/07/30 09:41:36;;;;;;;4.75;1.75;;;25.50;98.90;;;;;;5005069;28;20136;-81
2022/07/30 09:44:03;;;;;;;2.28;1.17;;;25.30;98.90;;;;;;4980900;28;20042;-81
2022/07/30 09:46:50;;;;;;;2.67;1.00;;;25.40;99.80;;;;;;4986640;28;20058;-82
2022/07/30 09:49:18;;;;;;;3.50;1.40;;;25.80;98.70;;;;;;4987633;28;20120;-87
2022/07/30 09:51:44;;;;;;;3.47;1.08;;;25.80;99.00;;;;;;4989593;28;20083;-84
2022/07/30 09:54:10;;;;;;;3.58;0.98;;;25.50;98.70;;;;;;4986174;28;20073;-84
2022/07/30 09:56:36;;;;;;;3.15;1.00;;;25.30;98.70;;;;;;4978942;28;20479;-83
2022/07/30 09:59:02;;;;;;;5.47;1.55;;;24.40;98.70;;;;;;4988046;28;20057;-84
2022/07/30 10:01:56;;;;;;;3.17;1.00;;;25.00;99.00;;;;;;4993519;28;20046;-84
2022/07/30 10:04:28;;;;;;;3.38;1.10;;;25.00;98.10;;;;;;5003500;28;20049;-84
2022/07/30 10:06:55;;;;;;;2.22;1.10;;;25.10;99.10;;;;;;4997641;28;20049;-84
2022/07/30 10:09:32;;;;;;;4.78;1.30;;;25.30;98.80;;;;;;4988728;28;20096;-84
2022/07/30 10:12:04;;;;;;;3.63;1.08;;;25.70;98.20;;;;;;4994725;28;20042;-85
2022/07/30 10:14:36;;;;;;;2.53;1.20;;;25.80;98.20;;;;;;5001769;28;20525;-84
2022/07/30 10:17:02;;;;;;;1.83;0.90;;;26.00;97.30;;;;;;4987331;28;20507;-84
2022/07/30 10:19:30;;;;;;;1.48;0.93;;;26.20;97.70;;;;;;4976421;28;20050;-84
2022/07/30 10:21:57;;;;;;;3.90;1.17;;;26.30;97.30;;;;;;5000066;28;20547;-83
2022/07/30 10:24:24;;;;;;;1.85;0.95;;;26.50;97.20;;;;;;4993963;28;20121;-80
2022/07/30 10:26:52;;;;;;;3.40;1.00;;;26.70;96.90;;;;;;4992406;28;20491;-81
2022/07/30 10:29:19;;;;;;;3.97;0.98;;;26.80;96.70;;;;;;4992078;28;20133;-85
2022/07/30 10:31:46;;;;;;;3.55;1.02;;;27.10;96.40;;;;;;5001574;28;20514;-83
2022/07/30 10:34:13;;;;;;;3.33;0.75;;;27.00;95.80;;;;;;4985699;28;20045;-82
2022/07/30 10:36:49;;;;;;;2.15;1.10;;;26.70;95.70;;;;;;4987037;28;20065;-83
2022/07/30 10:39:20;;;;;;;2.30;1.00;;;26.50;95.50;;;;;;4978974;28;20248;-82
2022/07/30 10:42:21;;;;;;;2.08;0.95;;;26.60;95.70;;;;;;5003359;28;20517;-81
2022/07/30 10:44:52;;;;;;;2.88;1.08;;;26.80;94.90;;;;;;4984330;28;20115;-81
2022/07/30 10:47:23;;;;;;;2.80;1.00;;;26.70;95.20;;;;;;5003149;28;20050;-82
2022/07/30 10:50:08;;;;;;;2.47;1.00;;;26.70;95.50;;;;;;4987924;28;20372;-81
2022/07/30 10:52:56;;;;;;;2.83;0.95;;;26.60;94.70;;;;;;5018468;28;20049;-81
2022/07/30 10:55:27;;;;;;;2.38;1.00;;;26.40;95.00;;;;;;5004346;28;20061;-82
2022/07/30 10:58:06;;;;;;;2.75;1.00;;;26.50;95.30;;;;;;4971019;28;20056;-84
2022/07/30 11:00:36;;;;;;;2.08;0.98;;;26.80;95.20;;;;;;4995476;28;20041;-79
2022/07/30 11:03:16;;;;;;;2.25;0.85;;;27.00;94.90;;;;;;4995932;28;20056;-79
2022/07/30 11:05:46;;;;;;;2.67;1.00;;;26.70;93.80;;;;;;4989943;28;20097;-80
2022/07/30 11:08:27;;;;;;;2.72;1.10;;;26.70;95.00;;;;;;5004723;28;20390;-80
2022/07/30 11:10:53;;;;;;;2.85;1.00;;;26.90;94.20;;;;;;4987363;28;20061;-80
2022/07/30 11:13:50;;;;;;;2.97;1.20;;;26.70;94.70;;;;;;5003597;28;20137;-81
2022/07/30 11:16:19;;;;;;;1.48;0.82;;;26.80;94.60;;;;;;5004449;28;20057;-81
2022/07/30 11:19:03;;;;;;;3.95;1.10;;;27.20;95.10;;;;;;4989456;28;20053;-79
2022/07/30 11:21:30;;;;;;;2.38;1.00;;;27.50;94.30;;;;;;4994125;28;20045;-80
2022/07/30 11:23:58;;;;;;;2.30;0.90;;;27.20;94.00;;;;;;4989243;28;20240;-80
2022/07/30 11:26:40;;;;;;;2.70;0.85;;;27.20;94.00;;;;;;4979702;28;20045;-80
2022/07/30 11:29:27;;;;;;;2.10;0.90;;;27.20;93.50;;;;;;4989775;28;20132;-80
2022/07/30 11:31:55;;;;;;;2.33;1.00;;;27.50;94.00;;;;;;5001955;28;20073;-79
2022/07/30 11:34:22;;;;;;;2.67;0.88;;;27.80;93.40;;;;;;4992919;28;20044;-78
2022/07/30 11:37:09;;;;;;;4.65;1.10;;;27.90;93.00;;;;;;4987282;28;20050;-79
2022/07/30 11:39:53;;;;;;;2.05;0.82;;;27.60;92.30;;;;;;4987606;28;20053;-79
2022/07/30 11:42:33;;;;;;;2.53;0.90;;;27.10;92.00;;;;;;5002313;28;20056;-79
2022/07/30 11:45:14;;;;;;;2.17;0.80;;;26.80;93.10;;;;;;4999444;28;20053;-80
2022/07/30 11:47:47;;;;;;;4.07;0.93;;;26.70;93.60;;;;;;5009287;28;20050;-81
2022/07/30 11:50:31;;;;;;;5.07;1.10;;;26.50;93.80;;;;;;5020115;28;20042;-83
2022/07/30 11:53:01;;;;;;;2.22;1.23;;;26.40;93.50;;;;;;5003161;28;20048;-82
2022/07/30 11:55:37;;;;;;;3.58;1.30;;;26.20;94.00;;;;;;4994210;28;20517;-82
2022/07/30 11:58:08;;;;;;;2.60;0.90;;;26.00;94.10;;;;;;5004585;28;20172;-82
2022/07/30 12:00:40;;;;;;;2.22;1.33;;;25.80;94.20;;;;;;4991224;28;20041;-82
2022/07/30 12:03:17;;;;;;;1.80;0.80;;;25.50;94.60;;;;;;4993474;28;20413;-83
2022/07/30 12:05:44;;;;;;;2.08;0.80;;;25.40;94.80;;;;;;5007492;28;20125;-83
2022/07/30 12:08:11;;;;;;;3.90;1.13;;;25.40;95.20;;;;;;4988050;28;20049;-81
2022/07/30 12:10:40;;;;;;;3.03;0.90;;;25.30;95.20;;;;;;5020253;28;20398;-82
2022/07/30 12:13:11;;;;;;;2.78;1.23;;;25.30;95.30;;;;;;4994348;28;20579;-81
2022/07/30 12:15:43;;;;;;;2.58;1.10;;;25.30;95.10;;;;;;5002812;28;20049;-81
2022/07/30 12:18:15;;;;;;;2.45;1.00;;;25.40;95.40;;;;;;5001788;28;20124;-82
2022/07/30 12:20:41;;;;;;;1.90;0.90;;;25.80;95.30;;;;;;4995284;28;20104;-82
2022/07/30 12:23:14;;;;;;;3.58;1.20;;;26.30;95.20;;;;;;5002748;28;20555;-82
2022/07/30 12:25:43;;;;;;;2.60;1.15;;;26.40;94.50;;;;;;5001431;28;20056;-81
2022/07/30 12:28:10;;;;;;;3.08;1.15;;;26.70;94.50;;;;;;4970550;28;20145;-82
2022/07/30 12:30:39;;;;;;;2.10;0.98;;;27.00;94.30;;;;;;5000631;28;20149;-81
2022/07/30 12:33:08;;;;;;;3.08;1.10;;;27.00;94.00;;;;;;4989580;28;20510;-80
2022/07/30 12:35:45;;;;;;;2.67;0.90;;;26.70;93.50;;;;;;4989866;28;20073;-82
2022/07/30 12:38:11;;;;;;;2.05;1.17;;;26.60;93.80;;;;;;4976844;28;20050;-87
2022/07/30 12:41:00;;;;;;;2.10;1.00;;;25.90;93.80;;;;;;4987833;28;20526;-83
2022/07/30 12:43:50;;;;;;;2.20;0.90;;;26.30;93.30;;;;;;5001504;28;20056;-85
2022/07/30 12:46:16;;;;;;;1.75;1.05;;;26.30;94.30;;;;;;5007308;28;20053;-85
2022/07/30 12:49:01;;;;;;;2.50;0.80;;;26.20;94.50;;;;;;4992600;28;20049;-84
2022/07/30 12:51:36;;;;;;;3.78;1.08;;;26.10;94.10;;;;;;4992074;28;20049;-83
2022/07/30 12:54:17;;;;;;;2.77;1.00;;;25.70;94.60;;;;;;4991328;28;20046;-84
2022/07/30 12:57:01;;;;;;;2.55;1.08;;;25.30;95.20;;;;;;5001991;28;20394;-86